createdAt,value
2018-12-11T00:00:44.725Z,0.00
2018-12-11T00:01:44.854Z,0.00
2018-12-11T00:02:44.983Z,0.00
2018-12-11T00:03:45.116Z,0.00
2018-12-11T00:04:45.246Z,0.00
2018-12-11T00:05:45.369Z,0.00
2018-12-11T00:06:45.498Z,0.00
2018-12-11T00:07:45.627Z,0.00
2018-12-11T00:08:45.748Z,0.00
2018-12-11T00:09:45.879Z,0.00
2018-12-11T00:10:46.007Z,0.00
2018-12-11T00:11:46.134Z,0.00
2018-12-11T00:12:46.260Z,0.00
2018-12-11T00:13:46.393Z,0.00
2018-12-11T00:14:46.517Z,0.00
2018-12-11T00:15:46.648Z,0.00
2018-12-11T00:16:46.777Z,0.00
2018-12-11T00:17:46.903Z,0.00
2018-12-11T00:18:47.031Z,0.00
2018-12-11T00:19:47.163Z,0.00
2018-12-11T00:20:47.289Z,0.00
2018-12-11T00:21:47.418Z,0.00
2018-12-11T00:22:47.546Z,0.00
2018-12-11T00:23:47.676Z,0.00
2018-12-11T00:24:47.806Z,0.00
2018-12-11T00:25:47.934Z,0.00
2018-12-11T00:26:48.070Z,0.00
2018-12-11T00:27:48.199Z,0.00
2018-12-11T00:28:48.330Z,0.00
2018-12-11T00:29:48.452Z,0.00
2018-12-11T00:30:48.582Z,0.00
2018-12-11T00:31:48.710Z,0.00
2018-12-11T00:32:48.835Z,0.00
2018-12-11T00:33:49.006Z,0.00
2018-12-11T00:34:49.163Z,0.00
2018-12-11T00:35:49.300Z,0.00
2018-12-11T00:36:49.412Z,0.00
2018-12-11T00:37:49.557Z,0.00
2018-12-11T00:38:49.690Z,0.00
2018-12-11T00:39:49.818Z,0.00
2018-12-11T00:40:49.947Z,0.00
2018-12-11T00:41:50.077Z,0.00
2018-12-11T00:42:50.205Z,0.00
2018-12-11T00:43:50.332Z,0.00
2018-12-11T00:44:50.465Z,0.00
2018-12-11T00:45:50.586Z,0.00
2018-12-11T00:46:50.716Z,0.00
2018-12-11T00:47:50.854Z,0.00
2018-12-11T00:48:50.986Z,0.00
2018-12-11T00:49:51.106Z,0.00
2018-12-11T00:50:51.260Z,0.00
2018-12-11T00:51:51.386Z,0.00
2018-12-11T00:52:51.512Z,0.00
2018-12-11T00:53:51.640Z,0.00
2018-12-11T00:54:51.771Z,0.00
2018-12-11T00:55:51.905Z,0.00
2018-12-11T00:56:52.038Z,0.00
2018-12-11T00:57:52.165Z,0.00
2018-12-11T00:58:52.299Z,0.00
2018-12-11T00:59:52.423Z,0.00
2018-12-11T01:00:52.557Z,0.00
2018-12-11T01:01:52.685Z,0.00
2018-12-11T01:02:52.816Z,0.00
2018-12-11T01:03:52.936Z,0.00
2018-12-11T01:04:53.074Z,0.00
2018-12-11T01:05:53.205Z,0.00
2018-12-11T01:06:53.333Z,0.00
2018-12-11T01:07:53.464Z,0.00
2018-12-11T01:08:53.594Z,0.00
2018-12-11T01:09:53.717Z,0.00
2018-12-11T01:10:53.848Z,0.00
2018-12-11T01:11:53.989Z,0.00
2018-12-11T01:12:54.123Z,0.00
2018-12-11T01:13:54.239Z,0.00
2018-12-11T01:14:54.374Z,0.00
2018-12-11T01:15:54.501Z,0.00
2018-12-11T01:16:54.656Z,0.00
2018-12-11T01:17:54.761Z,0.00
2018-12-11T01:18:54.889Z,0.00
2018-12-11T01:19:55.022Z,0.00
2018-12-11T01:20:55.139Z,0.00
2018-12-11T01:21:55.270Z,0.00
2018-12-11T01:22:55.403Z,0.00
2018-12-11T01:23:55.532Z,0.00
2018-12-11T01:24:55.670Z,0.00
2018-12-11T01:25:55.800Z,0.00
2018-12-11T01:26:55.926Z,0.00
2018-12-11T01:27:56.051Z,0.00
2018-12-11T01:28:56.181Z,0.00
2018-12-11T01:29:56.309Z,0.00
2018-12-11T01:30:56.442Z,0.00
2018-12-11T01:31:56.570Z,0.00
2018-12-11T01:32:56.693Z,0.00
2018-12-11T01:33:56.830Z,0.00
2018-12-11T01:34:56.956Z,0.00
2018-12-11T01:35:57.083Z,0.00
2018-12-11T01:36:57.211Z,0.00
2018-12-11T01:37:57.343Z,0.00
2018-12-11T01:38:57.475Z,0.00
2018-12-11T01:39:57.595Z,0.00
2018-12-11T01:40:57.726Z,0.00
2018-12-11T01:41:57.861Z,0.00
2018-12-11T01:42:57.995Z,0.00
2018-12-11T01:43:58.122Z,0.00
2018-12-11T01:44:58.250Z,0.00
2018-12-11T01:45:58.384Z,0.00
2018-12-11T01:46:58.510Z,0.00
2018-12-11T01:47:58.646Z,0.00
2018-12-11T01:48:58.769Z,0.00
2018-12-11T01:49:58.901Z,0.00
2018-12-11T01:50:59.039Z,0.00
2018-12-11T01:51:59.166Z,0.00
2018-12-11T01:52:59.294Z,0.00
2018-12-11T01:53:59.420Z,0.00
2018-12-11T01:54:59.550Z,0.00
2018-12-11T01:55:59.678Z,0.00
2018-12-11T01:56:59.808Z,0.00
2018-12-11T01:57:59.936Z,0.00
2018-12-11T01:59:00.057Z,0.00
2018-12-11T02:00:00.189Z,0.00
2018-12-11T02:01:00.315Z,0.00
2018-12-11T02:02:00.450Z,0.00
2018-12-11T02:03:00.576Z,0.00
2018-12-11T02:04:00.705Z,0.00
2018-12-11T02:05:00.834Z,0.00
2018-12-11T02:06:00.964Z,0.00
2018-12-11T02:07:01.093Z,0.00
2018-12-11T02:08:01.229Z,0.00
2018-12-11T02:09:01.363Z,0.00
2018-12-11T02:10:01.486Z,0.00
2018-12-11T02:11:01.651Z,0.00
2018-12-11T02:12:01.796Z,0.00
2018-12-11T02:13:01.921Z,0.00
2018-12-11T02:14:02.057Z,0.00
2018-12-11T02:15:02.185Z,0.00
2018-12-11T02:16:02.314Z,0.00
2018-12-11T02:17:02.436Z,0.00
2018-12-11T02:18:02.565Z,0.00
2018-12-11T02:19:02.699Z,0.00
2018-12-11T02:20:02.827Z,0.00
2018-12-11T02:21:02.952Z,0.00
2018-12-11T02:22:03.082Z,0.00
2018-12-11T02:23:03.205Z,0.00
2018-12-11T02:24:03.335Z,0.00
2018-12-11T02:25:03.478Z,0.00
2018-12-11T02:26:03.606Z,0.00
2018-12-11T02:27:03.728Z,0.00
2018-12-11T02:28:03.862Z,0.00
2018-12-11T02:29:03.995Z,0.00
2018-12-11T02:30:04.119Z,0.00
2018-12-11T02:31:04.246Z,0.00
2018-12-11T02:32:04.380Z,0.00
2018-12-11T02:33:04.500Z,0.00
2018-12-11T02:34:04.636Z,0.00
2018-12-11T02:35:04.792Z,0.00
2018-12-11T02:36:04.889Z,0.00
2018-12-11T02:37:05.018Z,0.00
2018-12-11T02:38:05.150Z,0.00
2018-12-11T02:39:05.284Z,0.00
2018-12-11T02:40:05.409Z,0.00
2018-12-11T02:41:05.536Z,0.00
2018-12-11T02:42:05.683Z,0.00
2018-12-11T02:43:05.801Z,0.00
2018-12-11T02:44:05.921Z,0.00
2018-12-11T02:45:06.048Z,0.00
2018-12-11T02:46:06.180Z,0.00
2018-12-11T02:47:06.313Z,0.00
2018-12-11T02:48:06.437Z,0.00
2018-12-11T02:49:06.566Z,0.00
2018-12-11T02:50:06.699Z,0.00
2018-12-11T02:51:06.827Z,0.00
2018-12-11T02:52:06.945Z,0.00
2018-12-11T02:53:07.077Z,0.00
2018-12-11T02:54:07.205Z,0.00
2018-12-11T02:55:07.327Z,0.00
2018-12-11T02:56:07.525Z,0.00
2018-12-11T02:57:07.587Z,0.00
2018-12-11T02:58:07.717Z,0.00
2018-12-11T02:59:07.847Z,0.00
2018-12-11T03:00:07.973Z,0.00
2018-12-11T03:01:08.115Z,0.00
2018-12-11T03:02:08.234Z,0.00
2018-12-11T03:03:08.364Z,0.00
2018-12-11T03:04:08.493Z,0.00
2018-12-11T03:05:08.621Z,0.00
2018-12-11T03:06:08.759Z,0.00
2018-12-11T03:07:08.886Z,0.00
2018-12-11T03:08:09.015Z,0.00
2018-12-11T03:09:09.141Z,0.00
2018-12-11T03:10:09.276Z,0.00
2018-12-11T03:11:09.405Z,0.00
2018-12-11T03:12:09.541Z,0.00
2018-12-11T03:13:09.663Z,0.00
2018-12-11T03:14:09.799Z,0.00
2018-12-11T03:15:09.931Z,0.00
2018-12-11T03:16:10.056Z,0.00
2018-12-11T03:17:10.183Z,0.00
2018-12-11T03:18:10.312Z,0.00
2018-12-11T03:19:10.443Z,0.00
2018-12-11T03:20:10.572Z,0.00
2018-12-11T03:21:10.706Z,0.00
2018-12-11T03:22:10.835Z,0.00
2018-12-11T03:23:10.962Z,0.00
2018-12-11T03:24:11.087Z,0.00
2018-12-11T03:25:11.222Z,0.00
2018-12-11T03:26:11.344Z,0.00
2018-12-11T03:27:11.476Z,0.00
2018-12-11T03:28:11.605Z,0.00
2018-12-11T03:29:11.735Z,0.00
2018-12-11T03:30:11.866Z,0.00
2018-12-11T03:31:11.989Z,0.00
2018-12-11T03:32:12.118Z,0.00
2018-12-11T03:33:12.247Z,0.00
2018-12-11T03:34:12.368Z,0.00
2018-12-11T03:35:12.499Z,0.00
2018-12-11T03:36:12.638Z,0.00
2018-12-11T03:37:12.759Z,0.00
2018-12-11T03:38:12.894Z,0.00
2018-12-11T03:39:13.025Z,0.00
2018-12-11T03:40:13.161Z,0.00
2018-12-11T03:41:13.288Z,0.00
2018-12-11T03:42:13.425Z,0.00
2018-12-11T03:43:13.568Z,0.00
2018-12-11T03:44:13.681Z,0.00
2018-12-11T03:45:13.807Z,0.00
2018-12-11T03:46:13.937Z,0.00
2018-12-11T03:47:14.060Z,0.00
2018-12-11T03:48:14.189Z,0.00
2018-12-11T03:49:14.317Z,0.00
2018-12-11T03:50:14.452Z,0.00
2018-12-11T03:51:14.579Z,0.00
2018-12-11T03:52:21.182Z,0.00
2018-12-11T03:53:14.840Z,0.00
2018-12-11T03:54:14.972Z,0.00
2018-12-11T03:55:15.093Z,0.00
2018-12-11T03:56:15.227Z,0.00
2018-12-11T03:57:15.354Z,0.00
2018-12-11T03:58:15.479Z,0.00
2018-12-11T03:59:15.664Z,0.00
2018-12-11T04:00:15.687Z,0.00
2018-12-11T04:01:15.811Z,0.00
2018-12-11T04:02:15.945Z,0.00
2018-12-11T04:03:16.076Z,0.00
2018-12-11T04:04:16.203Z,0.00
2018-12-11T04:05:16.330Z,0.00
2018-12-11T04:06:16.458Z,0.00
2018-12-11T04:07:16.587Z,0.00
2018-12-11T04:08:16.714Z,0.00
2018-12-11T04:09:16.846Z,0.00
2018-12-11T04:10:16.969Z,0.00
2018-12-11T04:11:17.098Z,0.00
2018-12-11T04:12:17.240Z,0.00
2018-12-11T04:13:17.384Z,0.00
2018-12-11T04:14:17.500Z,0.00
2018-12-11T04:15:17.635Z,0.00
2018-12-11T04:16:17.762Z,0.00
2018-12-11T04:17:17.894Z,0.00
2018-12-11T04:18:18.031Z,0.00
2018-12-11T04:19:18.149Z,0.00
2018-12-11T04:20:18.273Z,0.00
2018-12-11T04:21:18.405Z,0.00
2018-12-11T04:22:18.531Z,0.00
2018-12-11T04:23:18.656Z,0.00
2018-12-11T04:24:18.787Z,0.00
2018-12-11T04:25:18.916Z,0.00
2018-12-11T04:26:19.139Z,0.00
2018-12-11T04:27:19.185Z,0.00
2018-12-11T04:28:19.306Z,0.00
2018-12-11T04:29:19.433Z,0.00
2018-12-11T04:30:19.592Z,0.00
2018-12-11T04:31:19.719Z,0.00
2018-12-11T04:32:19.847Z,0.00
2018-12-11T04:33:20.008Z,0.00
2018-12-11T04:34:20.132Z,0.00
2018-12-11T04:35:20.266Z,0.00
2018-12-11T04:36:20.387Z,0.00
2018-12-11T04:37:20.517Z,0.00
2018-12-11T04:38:20.646Z,0.00
2018-12-11T04:39:20.771Z,0.00
2018-12-11T04:40:20.897Z,0.00
2018-12-11T04:41:21.021Z,0.00
2018-12-11T04:42:21.149Z,0.00
2018-12-11T04:43:21.277Z,0.00
2018-12-11T04:44:21.401Z,0.00
2018-12-11T04:45:21.529Z,0.00
2018-12-11T04:46:21.659Z,0.00
2018-12-11T04:47:21.788Z,0.00
2018-12-11T04:48:21.917Z,0.00
2018-12-11T04:49:22.058Z,0.00
2018-12-11T04:50:22.182Z,0.00
2018-12-11T04:51:22.309Z,0.00
2018-12-11T04:52:22.437Z,0.00
2018-12-11T04:53:22.572Z,0.00
2018-12-11T04:54:22.697Z,0.00
2018-12-11T04:55:22.823Z,0.00
2018-12-11T04:56:22.952Z,0.00
2018-12-11T04:57:23.076Z,0.00
2018-12-11T04:58:23.205Z,0.00
2018-12-11T04:59:23.334Z,0.00
2018-12-11T05:00:23.464Z,0.00
2018-12-11T05:01:23.597Z,0.00
2018-12-11T05:02:23.724Z,0.00
2018-12-11T05:03:23.846Z,0.00
2018-12-11T05:04:23.988Z,0.00
2018-12-11T05:05:24.117Z,0.00
2018-12-11T05:06:24.247Z,0.00
2018-12-11T05:07:24.368Z,0.00
2018-12-11T05:08:24.498Z,0.00
2018-12-11T05:09:24.623Z,0.00
2018-12-11T05:10:24.752Z,0.00
2018-12-11T05:11:24.882Z,0.00
2018-12-11T05:12:25.014Z,0.00
2018-12-11T05:13:25.141Z,0.00
2018-12-11T05:14:25.279Z,0.00
2018-12-11T05:15:25.397Z,0.00
2018-12-11T05:16:25.525Z,0.00
2018-12-11T05:17:25.654Z,0.00
2018-12-11T05:18:25.781Z,0.00
2018-12-11T05:19:25.906Z,0.00
2018-12-11T05:20:26.035Z,0.00
2018-12-11T05:21:26.161Z,0.00
2018-12-11T05:22:26.293Z,0.00
2018-12-11T05:23:26.423Z,0.00
2018-12-11T05:24:26.563Z,0.00
2018-12-11T05:25:26.693Z,0.00
2018-12-11T05:26:26.819Z,0.00
2018-12-11T05:27:26.951Z,0.00
2018-12-11T05:28:27.084Z,0.00
2018-12-11T05:29:27.217Z,0.00
2018-12-11T05:30:27.344Z,0.00
2018-12-11T05:31:27.475Z,0.00
2018-12-11T05:32:27.607Z,0.00
2018-12-11T05:33:27.732Z,0.00
2018-12-11T05:34:27.865Z,0.00
2018-12-11T05:35:27.990Z,0.00
2018-12-11T05:36:28.120Z,0.00
2018-12-11T05:37:28.269Z,0.00
2018-12-11T05:38:28.398Z,0.00
2018-12-11T05:39:28.530Z,0.00
2018-12-11T05:40:28.660Z,0.00
2018-12-11T05:41:28.787Z,0.00
2018-12-11T05:42:28.911Z,0.00
2018-12-11T05:43:29.042Z,0.00
2018-12-11T05:44:29.170Z,0.00
2018-12-11T05:45:29.298Z,0.00
2018-12-11T05:46:29.428Z,0.00
2018-12-11T05:47:29.566Z,0.00
2018-12-11T05:48:29.696Z,0.00
2018-12-11T05:49:29.829Z,0.00
2018-12-11T05:50:29.961Z,0.00
2018-12-11T05:51:30.084Z,0.00
2018-12-11T05:52:30.213Z,0.00
2018-12-11T05:53:30.348Z,0.00
2018-12-11T05:54:30.477Z,0.00
2018-12-11T05:55:30.604Z,0.00
2018-12-11T05:56:30.730Z,0.00
2018-12-11T05:57:30.865Z,0.00
2018-12-11T05:58:30.999Z,0.00
2018-12-11T05:59:31.121Z,0.00
2018-12-11T06:00:31.251Z,0.00
2018-12-11T06:01:31.383Z,0.00
2018-12-11T06:02:31.508Z,0.00
2018-12-11T06:03:31.641Z,0.00
2018-12-11T06:04:31.781Z,0.00
2018-12-11T06:05:31.903Z,0.00
2018-12-11T06:06:32.035Z,0.00
2018-12-11T06:07:32.161Z,0.00
2018-12-11T06:08:32.288Z,0.00
2018-12-11T06:09:32.418Z,0.00
2018-12-11T06:10:32.543Z,0.00
2018-12-11T06:11:32.670Z,0.00
2018-12-11T06:12:32.808Z,0.00
2018-12-11T06:13:32.934Z,0.00
2018-12-11T06:14:33.076Z,0.00
2018-12-11T06:15:33.186Z,0.00
2018-12-11T06:16:33.315Z,0.00
2018-12-11T06:17:33.446Z,0.00
2018-12-11T06:18:33.574Z,0.00
2018-12-11T06:19:33.706Z,0.00
2018-12-11T06:20:34.566Z,0.00
2018-12-11T06:21:33.972Z,0.00
2018-12-11T06:22:34.102Z,0.00
2018-12-11T06:23:34.231Z,0.00
2018-12-11T06:24:34.362Z,0.00
2018-12-11T06:25:34.498Z,0.00
2018-12-11T06:26:34.621Z,0.00
2018-12-11T06:27:34.745Z,0.00
2018-12-11T06:28:36.236Z,0.00
2018-12-11T06:29:35.007Z,0.00
2018-12-11T06:30:35.136Z,0.00
2018-12-11T06:31:35.266Z,0.00
2018-12-11T06:32:35.399Z,0.00
2018-12-11T06:33:35.526Z,0.00
2018-12-11T06:34:35.660Z,0.00
2018-12-11T06:35:35.787Z,0.00
2018-12-11T06:36:35.918Z,0.00
2018-12-11T06:37:36.045Z,0.00
2018-12-11T06:38:36.173Z,0.00
2018-12-11T06:39:36.314Z,0.00
2018-12-11T06:40:36.441Z,0.00
2018-12-11T06:41:36.568Z,0.00
2018-12-11T06:42:36.691Z,0.00
2018-12-11T06:43:36.821Z,0.00
2018-12-11T06:44:36.952Z,0.00
2018-12-11T06:45:37.075Z,0.00
2018-12-11T06:46:37.205Z,0.00
2018-12-11T06:47:37.330Z,0.00
2018-12-11T06:48:37.462Z,4.00
2018-12-11T06:49:37.588Z,0.00
2018-12-11T06:50:37.721Z,4.00
2018-12-11T06:51:37.849Z,0.00
2018-12-11T06:52:37.971Z,4.00
2018-12-11T06:53:38.110Z,4.00
2018-12-11T06:54:38.237Z,8.00
2018-12-11T06:55:38.371Z,4.00
2018-12-11T06:56:38.499Z,4.00
2018-12-11T06:57:38.629Z,4.00
2018-12-11T06:58:38.758Z,8.00
2018-12-11T06:59:38.888Z,4.00
2018-12-11T07:00:39.018Z,8.00
2018-12-11T07:01:39.988Z,4.00
2018-12-11T07:02:39.270Z,4.00
2018-12-11T07:03:39.397Z,8.00
2018-12-11T07:04:39.519Z,8.00
2018-12-11T07:05:39.653Z,4.00
2018-12-11T07:06:39.780Z,8.00
2018-12-11T07:07:39.909Z,12.00
2018-12-11T07:08:40.031Z,8.00
2018-12-11T07:09:40.163Z,12.00
2018-12-11T07:10:40.287Z,16.00
2018-12-11T07:11:40.415Z,16.00
2018-12-11T07:12:40.544Z,16.00
2018-12-11T07:13:40.678Z,12.00
2018-12-11T07:14:40.811Z,16.00
2018-12-11T07:15:40.990Z,24.00
2018-12-11T07:16:41.062Z,24.00
2018-12-11T07:17:41.190Z,32.00
2018-12-11T07:18:41.327Z,32.00
2018-12-11T07:19:41.449Z,32.00
2018-12-11T07:20:41.583Z,48.00
2018-12-11T07:21:41.713Z,76.00
2018-12-11T07:22:41.841Z,84.00
2018-12-11T07:23:41.969Z,96.00
2018-12-11T07:24:42.094Z,104.00
2018-12-11T07:25:42.230Z,100.00
2018-12-11T07:26:42.352Z,96.00
2018-12-11T07:27:42.483Z,84.00
2018-12-11T07:28:42.609Z,92.00
2018-12-11T07:29:42.737Z,92.00
2018-12-11T07:30:42.863Z,88.00
2018-12-11T07:31:42.994Z,88.00
2018-12-11T07:32:43.129Z,88.00
2018-12-11T07:33:43.259Z,100.00
2018-12-11T07:34:43.385Z,108.00
2018-12-11T07:35:43.521Z,116.00
2018-12-11T07:36:43.650Z,140.00
2018-12-11T07:37:43.778Z,172.00
2018-12-11T07:38:43.904Z,208.00
2018-12-11T07:39:44.030Z,248.00
2018-12-11T07:40:44.168Z,276.00
2018-12-11T07:41:44.296Z,276.00
2018-12-11T07:42:44.424Z,276.00
2018-12-11T07:43:44.553Z,252.00
2018-12-11T07:44:44.675Z,216.00
2018-12-11T07:45:44.810Z,192.00
2018-12-11T07:46:44.939Z,180.00
2018-12-11T07:47:45.062Z,176.00
2018-12-11T07:48:45.197Z,168.00
2018-12-11T07:49:45.330Z,140.00
2018-12-11T07:50:45.457Z,148.00
2018-12-11T07:51:45.586Z,152.00
2018-12-11T07:52:45.728Z,140.00
2018-12-11T07:53:45.853Z,136.00
2018-12-11T07:54:45.980Z,140.00
2018-12-11T07:55:46.115Z,140.00
2018-12-11T07:56:46.243Z,140.00
2018-12-11T07:57:46.375Z,148.00
2018-12-11T07:58:46.508Z,168.00
2018-12-11T07:59:46.638Z,184.00
2018-12-11T08:00:46.768Z,192.00
2018-12-11T08:01:46.900Z,236.00
2018-12-11T08:02:47.032Z,248.00
2018-12-11T08:03:47.164Z,260.00
2018-12-11T08:04:47.285Z,232.00
2018-12-11T08:05:47.416Z,196.00
2018-12-11T08:06:47.547Z,228.00
2018-12-11T08:07:47.676Z,248.00
2018-12-11T08:08:47.802Z,236.00
2018-12-11T08:09:48.487Z,296.00
2018-12-11T08:10:48.027Z,344.00
2018-12-11T08:11:48.150Z,392.00
2018-12-11T08:12:48.287Z,388.00
2018-12-11T08:13:48.445Z,416.00
2018-12-11T08:14:48.535Z,492.00
2018-12-11T08:15:48.664Z,548.00
2018-12-11T08:16:48.792Z,616.00
2018-12-11T08:17:48.924Z,696.00
2018-12-11T08:18:49.099Z,712.00
2018-12-11T08:19:49.192Z,740.00
2018-12-11T08:20:49.327Z,712.00
2018-12-11T08:21:49.457Z,732.00
2018-12-11T08:22:49.583Z,784.00
2018-12-11T08:23:49.708Z,852.00
2018-12-11T08:24:49.835Z,940.00
2018-12-11T08:25:49.965Z,984.00
2018-12-11T08:26:50.115Z,952.00
2018-12-11T08:27:50.247Z,948.00
2018-12-11T08:28:50.378Z,1020.00
2018-12-11T08:29:50.504Z,1020.00
2018-12-11T08:30:50.631Z,868.00
2018-12-11T08:31:50.762Z,668.00
2018-12-11T08:32:50.895Z,600.00
2018-12-11T08:33:51.025Z,644.00
2018-12-11T08:34:52.545Z,648.00
2018-12-11T08:35:51.293Z,640.00
2018-12-11T08:36:51.420Z,552.00
2018-12-11T08:37:51.552Z,496.00
2018-12-11T08:38:51.678Z,516.00
2018-12-11T08:39:51.809Z,532.00
2018-12-11T08:40:51.941Z,532.00
2018-12-11T08:41:52.067Z,604.00
2018-12-11T08:42:52.197Z,728.00
2018-12-11T08:43:52.326Z,828.00
2018-12-11T08:44:52.454Z,876.00
2018-12-11T08:45:52.581Z,760.00
2018-12-11T08:46:52.713Z,564.00
2018-12-11T08:47:52.852Z,468.00
2018-12-11T08:48:59.596Z,440.00
2018-12-11T08:49:53.096Z,456.00
2018-12-11T08:50:53.229Z,488.00
2018-12-11T08:51:53.360Z,524.00
2018-12-11T08:52:53.486Z,612.00
2018-12-11T08:53:53.620Z,716.00
2018-12-11T08:54:53.762Z,808.00
2018-12-11T08:55:53.893Z,796.00
2018-12-11T08:56:54.022Z,836.00
2018-12-11T08:57:54.221Z,812.00
2018-12-11T08:58:55.395Z,784.00
2018-12-11T08:59:54.344Z,792.00
2018-12-11T09:00:54.478Z,880.00
2018-12-11T09:01:54.636Z,764.00
2018-12-11T09:02:54.767Z,708.00
2018-12-11T09:03:54.892Z,676.00
2018-12-11T09:04:55.027Z,724.00
2018-12-11T09:05:55.160Z,648.00
2018-12-11T09:06:55.285Z,680.00
2018-12-11T09:07:55.413Z,788.00
2018-12-11T09:08:55.541Z,872.00
2018-12-11T09:09:55.673Z,824.00
2018-12-11T09:10:55.794Z,704.00
2018-12-11T09:11:55.926Z,656.00
2018-12-11T09:12:56.059Z,652.00
2018-12-11T09:13:56.191Z,680.00
2018-12-11T09:14:56.318Z,780.00
2018-12-11T09:15:56.447Z,868.00
2018-12-11T09:16:56.574Z,860.00
2018-12-11T09:17:56.724Z,908.00
2018-12-11T09:18:56.925Z,908.00
2018-12-11T09:19:56.932Z,928.00
2018-12-11T09:20:57.061Z,960.00
2018-12-11T09:21:57.192Z,772.00
2018-12-11T09:22:57.317Z,624.00
2018-12-11T09:23:57.449Z,532.00
2018-12-11T09:24:57.577Z,432.00
2018-12-11T09:25:57.702Z,404.00
2018-12-11T09:26:57.847Z,384.00
2018-12-11T09:27:57.975Z,400.00
2018-12-11T09:28:58.103Z,436.00
2018-12-11T09:29:58.237Z,480.00
2018-12-11T09:30:58.368Z,488.00
2018-12-11T09:31:58.490Z,480.00
2018-12-11T09:32:58.620Z,460.00
2018-12-11T09:33:58.747Z,436.00
2018-12-11T09:34:58.876Z,432.00
2018-12-11T09:35:59.005Z,460.00
2018-12-11T09:36:59.138Z,472.00
2018-12-11T09:37:59.267Z,528.00
2018-12-11T09:38:59.459Z,572.00
2018-12-11T09:39:59.527Z,556.00
2018-12-11T09:40:59.666Z,488.00
2018-12-11T09:41:59.794Z,504.00
2018-12-11T09:42:59.931Z,568.00
2018-12-11T09:44:00.070Z,544.00
2018-12-11T09:45:00.196Z,576.00
2018-12-11T09:46:00.322Z,668.00
2018-12-11T09:47:00.452Z,676.00
2018-12-11T09:48:00.582Z,632.00
2018-12-11T09:49:00.727Z,544.00
2018-12-11T09:50:00.856Z,472.00
2018-12-11T09:51:00.993Z,428.00
2018-12-11T09:52:01.115Z,432.00
2018-12-11T09:53:01.267Z,448.00
2018-12-11T09:54:01.396Z,484.00
2018-12-11T09:55:01.523Z,500.00
2018-12-11T09:56:01.657Z,500.00
2018-12-11T09:57:01.805Z,528.00
2018-12-11T09:58:17.844Z,480.00
2018-12-11T09:59:02.089Z,368.00
2018-12-11T10:00:02.219Z,308.00
2018-12-11T10:01:02.353Z,280.00
2018-12-11T10:02:02.481Z,308.00
2018-12-11T10:03:02.608Z,312.00
2018-12-11T10:04:02.738Z,312.00
2018-12-11T10:05:02.869Z,304.00
2018-12-11T10:06:02.999Z,316.00
2018-12-11T10:07:03.125Z,324.00
2018-12-11T10:08:03.257Z,328.00
2018-12-11T10:09:03.387Z,328.00
2018-12-11T10:10:03.519Z,328.00
2018-12-11T10:11:03.658Z,336.00
2018-12-11T10:12:03.784Z,352.00
2018-12-11T10:13:03.920Z,576.00
2018-12-11T10:14:04.056Z,672.00
2018-12-11T10:15:04.248Z,532.00
2018-12-11T10:16:04.373Z,584.00
2018-12-11T10:17:04.503Z,656.00
2018-12-11T10:18:04.634Z,688.00
2018-12-11T10:19:04.791Z,676.00
2018-12-11T10:20:05.532Z,904.00
2018-12-11T10:21:05.043Z,760.00
2018-12-11T10:22:05.183Z,732.00
2018-12-11T10:23:05.306Z,788.00
2018-12-11T10:24:05.435Z,768.00
2018-12-11T10:25:05.558Z,596.00
2018-12-11T10:26:05.689Z,488.00
2018-12-11T10:27:05.826Z,416.00
2018-12-11T10:28:05.955Z,440.00
2018-12-11T10:29:06.079Z,496.00
2018-12-11T10:30:06.263Z,520.00
2018-12-11T10:31:06.389Z,668.00
2018-12-11T10:32:06.514Z,708.00
2018-12-11T10:33:06.640Z,836.00
2018-12-11T10:34:06.782Z,1048.00
2018-12-11T10:35:06.909Z,1044.00
2018-12-11T10:36:07.047Z,800.00
2018-12-11T10:37:07.174Z,688.00
2018-12-11T10:38:07.305Z,648.00
2018-12-11T10:39:07.438Z,520.00
2018-12-11T10:40:07.565Z,500.00
2018-12-11T10:41:07.703Z,492.00
2018-12-11T10:42:07.834Z,568.00
2018-12-11T10:43:07.982Z,768.00
2018-12-11T10:44:08.149Z,812.00
2018-12-11T10:45:08.277Z,820.00
2018-12-11T10:46:08.414Z,828.00
2018-12-11T10:47:08.540Z,752.00
2018-12-11T10:48:08.679Z,764.00
2018-12-11T10:49:08.804Z,692.00
2018-12-11T10:50:08.936Z,652.00
2018-12-11T10:51:09.066Z,492.00
2018-12-11T10:52:09.193Z,556.00
2018-12-11T10:53:09.318Z,500.00
2018-12-11T10:54:09.441Z,456.00
2018-12-11T10:55:09.572Z,468.00
2018-12-11T10:56:09.702Z,632.00
2018-12-11T10:57:09.821Z,584.00
2018-12-11T10:58:09.958Z,472.00
2018-12-11T10:59:10.389Z,508.00
2018-12-11T11:00:10.211Z,764.00
2018-12-11T11:01:10.337Z,780.00
2018-12-11T11:02:10.468Z,1024.00
2018-12-11T11:03:10.598Z,856.00
2018-12-11T11:04:10.726Z,716.00
2018-12-11T11:05:10.860Z,772.00
2018-12-11T11:06:10.998Z,836.00
2018-12-11T11:07:11.124Z,720.00
2018-12-11T11:08:11.251Z,560.00
2018-12-11T11:09:11.382Z,472.00
2018-12-11T11:10:11.523Z,448.00
2018-12-11T11:11:11.657Z,464.00
2018-12-11T11:12:11.774Z,520.00
2018-12-11T11:13:11.917Z,612.00
2018-12-11T11:14:12.046Z,568.00
2018-12-11T11:15:12.168Z,424.00
2018-12-11T11:16:12.297Z,420.00
2018-12-11T11:17:12.433Z,448.00
2018-12-11T11:18:12.554Z,412.00
2018-12-11T11:19:12.684Z,380.00
2018-12-11T11:20:12.817Z,380.00
2018-12-11T11:21:12.945Z,376.00
2018-12-11T11:22:13.075Z,400.00
2018-12-11T11:23:13.201Z,436.00
2018-12-11T11:24:13.340Z,456.00
2018-12-11T11:25:16.201Z,420.00
2018-12-11T11:26:13.574Z,372.00
2018-12-11T11:27:13.709Z,360.00
2018-12-11T11:28:13.837Z,404.00
2018-12-11T11:29:13.965Z,400.00
2018-12-11T11:30:14.109Z,348.00
2018-12-11T11:31:14.238Z,312.00
2018-12-11T11:32:14.371Z,248.00
2018-12-11T11:33:14.502Z,252.00
2018-12-11T11:34:14.627Z,296.00
2018-12-11T11:35:14.756Z,236.00
2018-12-11T11:36:14.884Z,212.00
2018-12-11T11:37:15.020Z,220.00
2018-12-11T11:38:15.147Z,284.00
2018-12-11T11:39:15.276Z,396.00
2018-12-11T11:40:15.444Z,576.00
2018-12-11T11:41:15.563Z,632.00
2018-12-11T11:42:15.694Z,572.00
2018-12-11T11:43:15.830Z,712.00
2018-12-11T11:44:15.961Z,880.00
2018-12-11T11:45:16.093Z,856.00
2018-12-11T11:46:16.221Z,1012.00
2018-12-11T11:47:16.348Z,1232.00
2018-12-11T11:48:16.482Z,1800.00
2018-12-11T11:49:16.617Z,2800.00
2018-12-11T11:50:16.774Z,2460.00
2018-12-11T11:51:16.893Z,4844.00
2018-12-11T11:52:17.032Z,1800.00
2018-12-11T11:53:17.163Z,1656.00
2018-12-11T11:54:17.298Z,1688.00
2018-12-11T11:55:17.428Z,1788.00
2018-12-11T11:56:17.565Z,2004.00
2018-12-11T11:57:17.696Z,2964.00
2018-12-11T11:58:17.823Z,2144.00
2018-12-11T11:59:17.986Z,1336.00
2018-12-11T12:00:18.630Z,1292.00
2018-12-11T12:01:18.267Z,1576.00
2018-12-11T12:02:18.394Z,1632.00
2018-12-11T12:03:18.524Z,1480.00
2018-12-11T12:04:18.656Z,1372.00
2018-12-11T12:05:18.794Z,1528.00
2018-12-11T12:06:18.931Z,1712.00
2018-12-11T12:07:19.060Z,1296.00
2018-12-11T12:08:19.185Z,1688.00
2018-12-11T12:09:19.319Z,2208.00
2018-12-11T12:10:19.448Z,2196.00
2018-12-11T12:11:19.577Z,2176.00
2018-12-11T12:12:19.743Z,2060.00
2018-12-11T12:13:19.870Z,1428.00
2018-12-11T12:14:19.996Z,1184.00
2018-12-11T12:15:20.119Z,1128.00
2018-12-11T12:16:20.284Z,1116.00
2018-12-11T12:17:20.415Z,1076.00
2018-12-11T12:18:20.543Z,1084.00
2018-12-11T12:19:20.672Z,1092.00
2018-12-11T12:20:20.821Z,992.00
2018-12-11T12:21:20.933Z,916.00
2018-12-11T12:22:21.421Z,908.00
2018-12-11T12:23:21.227Z,1060.00
2018-12-11T12:24:21.357Z,1152.00
2018-12-11T12:25:21.483Z,1220.00
2018-12-11T12:26:21.646Z,1184.00
2018-12-11T12:27:21.838Z,1064.00
2018-12-11T12:28:21.843Z,1024.00
2018-12-11T12:29:21.971Z,1092.00
2018-12-11T12:30:22.163Z,1228.00
2018-12-11T12:31:22.268Z,1296.00
2018-12-11T12:32:22.272Z,1424.00
2018-12-11T12:33:23.123Z,1476.00
2018-12-11T12:34:22.641Z,1484.00
2018-12-11T12:35:22.577Z,1572.00
2018-12-11T12:36:22.710Z,1316.00
2018-12-11T12:37:22.840Z,1160.00
2018-12-11T12:38:22.969Z,1356.00
2018-12-11T12:39:23.100Z,2628.00
2018-12-11T12:40:23.260Z,3528.00
2018-12-11T12:41:23.391Z,3360.00
2018-12-11T12:42:23.532Z,2656.00
2018-12-11T12:43:23.655Z,2904.00
2018-12-11T12:44:23.801Z,3136.00
2018-12-11T12:45:45.062Z,2500.00
2018-12-11T12:46:24.062Z,1884.00
2018-12-11T12:47:24.202Z,1624.00
2018-12-11T12:48:24.338Z,1532.00
2018-12-11T12:49:24.481Z,1464.00
2018-12-11T12:50:24.658Z,1580.00
2018-12-11T12:51:24.794Z,1816.00
2018-12-11T12:52:24.949Z,2024.00
2018-12-11T12:53:25.068Z,1972.00
2018-12-11T12:54:25.189Z,1952.00
2018-12-11T12:55:25.317Z,1932.00